Sinton, Texas
Current Conditions -  °F | °C
As of 12:51 PM on Thursday 30 Oct 2014 (Local Time) from KCRP Reporting Station
Broken Clouds Broken Clouds  
Wind Chill: 82°   Ceiling: 3800
Heat Index: 85°   Visibility: 10mi
Dew Point: 69°   Wind: 8mph
Humidity: 65%   Direction: 50°NE
Pressure: 30.08"   Gusts: NA
Location:  28.04°N, 97.51°W
Report Text: KCRP 301751Z 05007KT 10SM SCT027 BKN038 BKN047 28/21 A3008 RMK AO2 SLP183 T02780206 10294 20206 58009
Loading
Personal Weather Stations






























Interactive Weather Map
Tropical Storm Tracking
New forecast layout! Learn more

10-Day Weather Forecast

Advertisements
Track Severe Weather on mobile